createdAt,value
2017-10-06T08:29:14.810Z,185
2017-10-06T08:30:15.443Z,200
2017-10-06T08:31:16.075Z,205
2017-10-06T08:32:16.705Z,165
2017-10-06T08:33:17.338Z,135
2017-10-06T08:34:17.969Z,165
2017-10-06T08:35:18.602Z,175
2017-10-06T08:36:19.233Z,145
2017-10-06T08:37:19.864Z,150
2017-10-06T08:38:20.511Z,100
2017-10-06T08:39:21.140Z,95
2017-10-06T08:40:21.771Z,155
2017-10-06T08:41:22.402Z,165
2017-10-06T08:42:23.036Z,155
2017-10-06T08:43:23.672Z,160
2017-10-06T08:44:24.302Z,135
2017-10-06T08:45:24.934Z,145
2017-10-06T08:46:25.575Z,150
2017-10-06T08:47:26.203Z,160
2017-10-06T08:48:26.841Z,160
2017-10-06T08:49:27.780Z,135
2017-10-06T08:50:28.421Z,160
2017-10-06T08:51:29.052Z,165
2017-10-06T08:52:29.686Z,190
2017-10-06T08:53:30.316Z,180
2017-10-06T08:54:31.196Z,185
2017-10-06T08:55:31.835Z,180
2017-10-06T08:56:32.468Z,180
2017-10-06T08:57:33.096Z,190
2017-10-06T08:58:33.727Z,175
2017-10-06T08:59:34.357Z,175
2017-10-06T09:00:34.986Z,150
2017-10-06T09:01:35.620Z,160
2017-10-06T09:02:36.252Z,140
2017-10-06T09:03:36.885Z,130
2017-10-06T09:04:37.516Z,130
2017-10-06T09:05:38.158Z,130
2017-10-06T09:06:38.788Z,135
2017-10-06T09:07:39.419Z,140
2017-10-06T09:08:40.054Z,145
2017-10-06T09:09:40.684Z,145
2017-10-06T09:10:41.318Z,140
2017-10-06T09:11:41.952Z,130
2017-10-06T09:12:42.590Z,125
2017-10-06T09:13:43.220Z,135
2017-10-06T09:14:43.855Z,140
2017-10-06T09:15:44.485Z,140
2017-10-06T09:16:45.120Z,145
2017-10-06T09:17:45.748Z,165
2017-10-06T09:18:46.380Z,180
2017-10-06T09:19:47.013Z,190
2017-10-06T09:20:47.639Z,200
2017-10-06T09:21:48.275Z,245
2017-10-06T09:22:48.917Z,225
2017-10-06T09:23:49.544Z,220
2017-10-06T09:24:50.184Z,265
2017-10-06T09:25:50.815Z,250
2017-10-06T09:26:51.579Z,225
2017-10-06T09:27:52.218Z,175
2017-10-06T09:28:52.851Z,140
2017-10-06T09:29:53.743Z,145
2017-10-06T09:30:54.388Z,170
2017-10-06T09:31:55.025Z,175
2017-10-06T09:32:55.657Z,160
2017-10-06T09:33:56.287Z,160
2017-10-06T09:34:57.157Z,190
2017-10-06T09:35:57.863Z,160
2017-10-06T09:36:58.496Z,180
2017-10-06T09:37:59.127Z,170
2017-10-06T09:38:59.759Z,150
2017-10-06T09:40:00.395Z,150
2017-10-06T09:41:01.039Z,135
2017-10-06T09:42:01.676Z,145
2017-10-06T09:43:02.309Z,155
2017-10-06T09:44:02.941Z,155
2017-10-06T09:45:03.575Z,150
2017-10-06T09:46:04.220Z,170
2017-10-06T09:47:04.861Z,205
2017-10-06T09:48:05.496Z,200
2017-10-06T09:49:06.127Z,185
2017-10-06T09:50:06.759Z,145
2017-10-06T09:51:07.392Z,145
2017-10-06T09:52:08.023Z,155
2017-10-06T09:53:08.656Z,165
2017-10-06T09:54:09.293Z,185
2017-10-06T09:55:09.930Z,205
2017-10-06T09:56:10.561Z,220
2017-10-06T09:57:11.194Z,190
2017-10-06T09:58:11.820Z,170
2017-10-06T09:59:12.459Z,140
2017-10-06T10:00:13.089Z,160
2017-10-06T10:01:13.724Z,180
2017-10-06T10:02:14.358Z,185
2017-10-06T10:03:14.996Z,200
2017-10-06T10:04:15.624Z,185
2017-10-06T10:05:16.508Z,180
2017-10-06T10:06:17.139Z,155
2017-10-06T10:07:17.767Z,145
2017-10-06T10:08:18.398Z,155
2017-10-06T10:09:19.028Z,165
2017-10-06T10:10:19.658Z,145
2017-10-06T10:11:20.291Z,150
2017-10-06T10:12:20.924Z,165
2017-10-06T10:13:21.657Z,165
2017-10-06T10:14:22.286Z,210
2017-10-06T10:15:22.921Z,195
2017-10-06T10:16:23.554Z,185
2017-10-06T10:17:24.185Z,205
2017-10-06T10:18:24.824Z,230
2017-10-06T10:19:25.456Z,250
2017-10-06T10:20:26.384Z,245
2017-10-06T10:21:27.017Z,280
2017-10-06T10:22:27.667Z,260
2017-10-06T10:23:28.307Z,235
2017-10-06T10:24:28.935Z,240
2017-10-06T10:25:29.565Z,260
2017-10-06T10:26:30.193Z,260
2017-10-06T10:27:30.839Z,240
2017-10-06T10:28:31.470Z,235
2017-10-06T10:29:32.101Z,245
2017-10-06T10:30:32.734Z,240
2017-10-06T10:31:33.373Z,305
2017-10-06T10:32:34.010Z,300
2017-10-06T10:33:34.640Z,300
2017-10-06T10:34:35.272Z,295
2017-10-06T10:35:35.916Z,270
2017-10-06T10:36:36.544Z,345
2017-10-06T10:37:37.179Z,315
2017-10-06T10:38:37.811Z,265
2017-10-06T10:39:38.447Z,280
2017-10-06T10:40:39.081Z,270
2017-10-06T10:41:39.731Z,245
2017-10-06T10:42:40.359Z,250
2017-10-06T10:43:40.993Z,290
2017-10-06T10:44:41.623Z,320
2017-10-06T10:45:42.254Z,330
2017-10-06T10:46:42.889Z,370
2017-10-06T10:47:43.531Z,395
2017-10-06T10:48:44.171Z,410
2017-10-06T10:49:44.807Z,370
2017-10-06T10:50:45.687Z,320
2017-10-06T10:51:46.316Z,315
2017-10-06T10:52:46.957Z,295
2017-10-06T10:53:47.588Z,275
2017-10-06T10:54:48.230Z,275
2017-10-06T10:55:48.860Z,285
2017-10-06T10:56:49.495Z,280
2017-10-06T10:57:50.131Z,290
2017-10-06T10:58:50.767Z,265
2017-10-06T10:59:51.398Z,285
2017-10-06T11:00:52.286Z,315
2017-10-06T11:01:52.918Z,350
2017-10-06T11:02:53.550Z,365
2017-10-06T11:03:54.194Z,385
2017-10-06T11:04:54.825Z,420
2017-10-06T11:05:55.460Z,470
2017-10-06T11:06:56.094Z,445
2017-10-06T11:07:56.725Z,490
2017-10-06T11:08:57.362Z,460
2017-10-06T11:09:57.993Z,400
2017-10-06T11:10:58.879Z,275
2017-10-06T11:11:59.511Z,290
2017-10-06T11:13:00.202Z,345
2017-10-06T11:14:00.837Z,375
2017-10-06T11:15:01.477Z,330
2017-10-06T11:16:02.164Z,260
2017-10-06T11:17:02.797Z,235
2017-10-06T11:18:03.428Z,205
2017-10-06T11:19:04.065Z,240
2017-10-06T11:20:04.700Z,260
2017-10-06T11:21:05.331Z,255
2017-10-06T11:22:05.962Z,255
2017-10-06T11:23:06.591Z,260
2017-10-06T11:24:07.228Z,295
2017-10-06T11:25:07.860Z,300
2017-10-06T11:26:08.501Z,340
2017-10-06T11:27:09.138Z,325
2017-10-06T11:28:09.771Z,295
2017-10-06T11:29:10.404Z,290
2017-10-06T11:30:11.034Z,315
2017-10-06T11:31:11.675Z,320
2017-10-06T11:32:12.300Z,310
2017-10-06T11:33:12.929Z,295
2017-10-06T11:34:13.563Z,260
2017-10-06T11:35:14.195Z,225
2017-10-06T11:36:14.837Z,260
2017-10-06T11:37:15.477Z,275
2017-10-06T11:38:16.127Z,285
2017-10-06T11:39:16.765Z,315
2017-10-06T11:40:17.397Z,340
2017-10-06T11:41:18.031Z,315
2017-10-06T11:42:18.662Z,305
2017-10-06T11:43:19.296Z,405
2017-10-06T11:44:19.934Z,480
2017-10-06T11:45:20.567Z,480
2017-10-06T11:46:21.200Z,445
2017-10-06T11:47:21.841Z,420
2017-10-06T11:48:22.475Z,380
2017-10-06T11:49:23.105Z,350
2017-10-06T11:50:23.735Z,325
2017-10-06T11:51:24.370Z,290
2017-10-06T11:52:25.025Z,275
2017-10-06T11:53:25.703Z,280
2017-10-06T11:54:26.339Z,310
2017-10-06T11:55:26.969Z,305
2017-10-06T11:56:27.906Z,325
2017-10-06T11:57:28.557Z,310
2017-10-06T11:58:29.172Z,325
2017-10-06T11:59:29.805Z,365
2017-10-06T12:00:30.466Z,360
2017-10-06T12:01:31.450Z,375
2017-10-06T12:02:32.087Z,415
2017-10-06T12:03:32.718Z,330
2017-10-06T12:04:33.354Z,510
2017-10-06T12:05:33.986Z,260
2017-10-06T12:06:34.620Z,190
2017-10-06T12:07:35.256Z,155
2017-10-06T12:08:35.898Z,135
2017-10-06T12:09:36.529Z,125
2017-10-06T12:10:37.162Z,125
2017-10-06T12:11:37.801Z,120
2017-10-06T12:12:38.434Z,110
2017-10-06T12:13:39.083Z,105
2017-10-06T12:14:39.727Z,95
2017-10-06T12:15:40.367Z,80
2017-10-06T12:16:41.006Z,75
2017-10-06T12:17:41.636Z,80
2017-10-06T12:18:42.288Z,90
2017-10-06T12:19:42.897Z,120
2017-10-06T12:20:43.543Z,155
2017-10-06T12:21:44.174Z,185
2017-10-06T12:22:44.805Z,215
2017-10-06T12:23:45.459Z,220
2017-10-06T12:24:46.089Z,250
2017-10-06T12:25:46.746Z,275
2017-10-06T12:26:47.661Z,215
2017-10-06T12:27:48.305Z,105
2017-10-06T12:28:48.949Z,80
2017-10-06T12:29:49.577Z,70
2017-10-06T12:30:50.225Z,75
2017-10-06T12:31:51.091Z,90
2017-10-06T12:32:51.732Z,95
2017-10-06T12:33:52.368Z,85
2017-10-06T12:34:53.001Z,80
2017-10-06T12:35:53.633Z,65
2017-10-06T12:36:54.529Z,55
2017-10-06T12:37:55.175Z,55
2017-10-06T12:38:55.807Z,60
2017-10-06T12:39:56.441Z,65
2017-10-06T12:40:57.077Z,70
2017-10-06T12:41:57.710Z,65
2017-10-06T12:42:58.352Z,60
2017-10-06T12:43:58.992Z,55
2017-10-06T12:44:59.629Z,50
2017-10-06T12:46:00.259Z,50
2017-10-06T12:47:00.896Z,50
2017-10-06T12:48:01.531Z,50
2017-10-06T12:49:02.161Z,50
2017-10-06T12:50:02.796Z,50
2017-10-06T12:51:03.427Z,60
2017-10-06T12:52:04.057Z,70
2017-10-06T12:53:04.689Z,85
2017-10-06T12:54:05.316Z,90
2017-10-06T12:55:05.944Z,95
2017-10-06T12:56:06.587Z,100
2017-10-06T12:57:07.218Z,110
2017-10-06T12:58:07.856Z,120
2017-10-06T12:59:08.503Z,130
2017-10-06T13:00:09.134Z,145
2017-10-06T13:01:09.764Z,165
2017-10-06T13:02:10.648Z,185
2017-10-06T13:03:11.289Z,195
2017-10-06T13:04:11.927Z,205
2017-10-06T13:05:12.559Z,210
2017-10-06T13:06:13.194Z,210
2017-10-06T13:07:13.826Z,220
2017-10-06T13:08:14.460Z,240
2017-10-06T13:09:15.094Z,265
2017-10-06T13:10:15.725Z,290
2017-10-06T13:11:16.357Z,310
2017-10-06T13:12:17.236Z,340
2017-10-06T13:13:17.881Z,520
2017-10-06T13:14:18.514Z,615
2017-10-06T13:15:19.147Z,775
2017-10-06T13:16:19.777Z,935
2017-10-06T13:17:20.335Z,970
2017-10-06T13:18:21.044Z,1080
2017-10-06T13:19:21.684Z,1105
2017-10-06T13:20:22.316Z,825
2017-10-06T13:21:22.949Z,855
2017-10-06T13:22:23.584Z,945
2017-10-06T13:23:24.223Z,1000
2017-10-06T13:24:24.861Z,700
2017-10-06T13:25:25.495Z,835
2017-10-06T13:26:26.129Z,880
2017-10-06T13:27:26.758Z,1170
2017-10-06T13:28:27.400Z,1795
2017-10-06T13:29:28.043Z,2040
2017-10-06T13:30:28.685Z,2100
2017-10-06T13:31:29.317Z,2090
2017-10-06T13:32:29.955Z,2160
2017-10-06T13:33:30.590Z,1990
2017-10-06T13:34:31.226Z,2005
2017-10-06T13:35:31.941Z,2110
2017-10-06T13:36:32.576Z,2180
2017-10-06T13:37:33.215Z,2160
2017-10-06T13:38:33.856Z,890
2017-10-06T13:39:34.494Z,625
2017-10-06T13:40:35.130Z,690
2017-10-06T13:41:35.771Z,450
2017-10-06T13:42:36.414Z,390
2017-10-06T13:43:37.048Z,1275
2017-10-06T13:44:37.689Z,1830
2017-10-06T13:45:38.325Z,2155
2017-10-06T13:46:38.962Z,2170
2017-10-06T13:47:39.599Z,1515
2017-10-06T13:48:40.236Z,1300
2017-10-06T13:49:40.872Z,1105
2017-10-06T13:50:41.518Z,1010
2017-10-06T13:51:42.151Z,310
2017-10-06T13:52:42.795Z,915
2017-10-06T13:53:43.429Z,965
2017-10-06T13:54:44.065Z,925
2017-10-06T13:55:44.707Z,585
2017-10-06T13:56:45.342Z,820
2017-10-06T13:57:45.977Z,780
2017-10-06T13:58:46.628Z,750
2017-10-06T13:59:47.265Z,775
2017-10-06T14:00:47.908Z,765
2017-10-06T14:01:48.559Z,750
2017-10-06T14:02:49.196Z,775
2017-10-06T14:03:49.833Z,700
2017-10-06T14:04:50.498Z,410
2017-10-06T14:05:51.133Z,1020
2017-10-06T14:06:51.775Z,1010
2017-10-06T14:07:52.418Z,460
2017-10-06T14:08:53.057Z,955
2017-10-06T14:09:53.710Z,755
2017-10-06T14:10:54.353Z,910
2017-10-06T14:11:54.977Z,875
2017-10-06T14:12:55.884Z,825
2017-10-06T14:13:56.521Z,760
2017-10-06T14:14:57.156Z,745
2017-10-06T14:15:57.795Z,545
2017-10-06T14:16:58.428Z,870
2017-10-06T14:17:59.070Z,505
2017-10-06T14:18:59.708Z,880
2017-10-06T14:20:00.343Z,925
2017-10-06T14:21:00.985Z,920
2017-10-06T14:22:01.626Z,840
2017-10-06T14:23:02.560Z,750
2017-10-06T14:24:03.195Z,605
2017-10-06T14:25:03.838Z,655
2017-10-06T14:26:04.474Z,675
2017-10-06T14:27:05.111Z,705
2017-10-06T14:28:05.746Z,745
2017-10-06T14:29:06.390Z,680
2017-10-06T14:30:07.027Z,700
2017-10-06T14:31:07.668Z,645
2017-10-06T14:32:08.307Z,595
2017-10-06T14:33:08.969Z,600
2017-10-06T14:34:09.587Z,230
2017-10-06T14:35:10.228Z,555
2017-10-06T14:36:10.862Z,325
2017-10-06T14:37:11.499Z,745
2017-10-06T14:38:12.156Z,370
2017-10-06T14:39:12.798Z,520
2017-10-06T14:40:13.436Z,375
2017-10-06T14:41:14.083Z,350
2017-10-06T14:42:14.718Z,315
2017-10-06T14:43:16.020Z,300
2017-10-06T14:44:16.658Z,265
2017-10-06T14:45:17.299Z,210
2017-10-06T14:46:17.930Z,165
2017-10-06T14:47:18.564Z,135
2017-10-06T14:48:19.206Z,125
2017-10-06T14:49:19.839Z,120
2017-10-06T14:50:20.473Z,120
2017-10-06T14:51:21.103Z,100
2017-10-06T14:52:21.736Z,80
2017-10-06T14:53:22.685Z,85
2017-10-06T14:54:23.318Z,115
2017-10-06T14:55:23.951Z,160
2017-10-06T14:56:24.583Z,180
2017-10-06T14:57:25.215Z,190
2017-10-06T14:58:25.850Z,185
2017-10-06T14:59:26.484Z,175
2017-10-06T15:00:27.128Z,170
2017-10-06T15:01:27.769Z,150
2017-10-06T15:02:28.403Z,145
2017-10-06T15:03:29.037Z,145
2017-10-06T15:04:29.671Z,35
